Time;durP1;ratioP1;P1;durP2;ratioP2;P2;SDS_P1;SDS_P2;PMS_P1;PMS_P2;Temp;Humidity;BMP_temperature;BMP_pressure;BME280_temperature;BME280_humidity;BME280_pressure;Samples;Min_cycle;Max_cycle;Signal;HPM_P1;HPM_P2
2022/07/21 00:01:51;;;;;;;12.70;7.03;;;19.10;99.90;;;;;;5085662;28;20051;-44
2022/07/21 00:04:17;;;;;;;8.38;5.82;;;19.10;99.90;;;;;;5086204;28;20041;-43
2022/07/21 00:06:44;;;;;;;11.27;7.13;;;19.10;99.90;;;;;;5085736;28;20520;-43
2022/07/21 00:09:11;;;;;;;10.15;6.88;;;19.10;99.90;;;;;;5085704;28;20054;-42
2022/07/21 00:11:37;;;;;;;9.98;6.38;;;19.10;99.90;;;;;;5083515;28;20056;-43
2022/07/21 00:14:04;;;;;;;13.60;7.00;;;19.10;99.90;;;;;;5086178;28;20054;-43
2022/07/21 00:16:30;;;;;;;12.60;7.47;;;17.30;99.90;;;;;;5085948;28;20466;-44
2022/07/21 00:18:56;;;;;;;12.80;7.13;;;19.00;99.90;;;;;;5085790;28;20040;-43
2022/07/21 00:21:22;;;;;;;10.32;7.10;;;19.10;99.90;;;;;;5085746;28;20078;-43
2022/07/21 00:23:48;;;;;;;13.88;7.03;;;19.10;99.90;;;;;;5085643;28;20588;-43
2022/07/21 00:26:15;;;;;;;8.82;7.05;;;19.00;99.90;;;;;;5086216;28;20044;-42
2022/07/21 00:28:40;;;;;;;10.85;6.93;;;19.00;99.90;;;;;;5086169;28;20054;-42
2022/07/21 00:31:06;;;;;;;10.77;6.63;;;19.00;99.90;;;;;;5086326;28;20409;-42
2022/07/21 00:33:32;;;;;;;16.77;8.15;;;19.00;99.90;;;;;;5086244;28;20043;-42
2022/07/21 00:35:57;;;;;;;13.13;7.20;;;19.00;99.90;;;;;;5088134;28;20040;-42
2022/07/21 00:38:23;;;;;;;12.35;7.03;;;19.00;99.90;;;;;;5090117;28;20035;-42
2022/07/21 00:40:48;;;;;;;15.98;8.25;;;18.90;99.90;;;;;;5089937;28;20039;-41
2022/07/21 00:43:14;;;;;;;15.25;8.55;;;18.90;99.90;;;;;;5089997;28;20394;-42
2022/07/21 00:45:40;;;;;;;16.13;9.57;;;18.80;99.90;;;;;;5089625;28;20048;-42
2022/07/21 00:48:06;;;;;;;25.75;10.25;;;18.70;99.90;;;;;;5089723;28;20040;-44
2022/07/21 00:50:32;;;;;;;17.75;10.18;;;18.60;99.90;;;;;;5088834;28;20083;-43
2022/07/21 00:52:58;;;;;;;11.82;8.73;;;18.60;99.90;;;;;;5088637;28;20055;-42
2022/07/21 00:55:24;;;;;;;19.27;10.18;;;18.60;99.90;;;;;;5089362;28;20051;-42
2022/07/21 00:57:51;;;;;;;18.55;9.90;;;18.60;99.90;;;;;;5089409;28;20772;-42
2022/07/21 01:00:21;;;;;;;17.75;9.18;;;18.70;99.90;;;;;;5089708;28;20379;-42
2022/07/21 01:02:47;;;;;;;14.13;9.13;;;18.50;99.90;;;;;;5089171;28;20080;-41
2022/07/21 01:05:15;;;;;;;17.15;9.30;;;18.40;99.90;;;;;;5089316;28;20075;-43
2022/07/21 01:07:42;;;;;;;14.73;10.43;;;18.40;99.90;;;;;;5089509;28;20054;-43
2022/07/21 01:10:10;;;;;;;18.33;10.73;;;17.30;99.90;;;;;;5089460;28;20051;-42
2022/07/21 01:12:36;;;;;;;19.95;10.95;;;18.40;99.90;;;;;;5089182;28;20059;-42
2022/07/21 01:15:03;;;;;;;15.80;10.18;;;18.30;99.90;;;;;;5088997;28;20040;-42
2022/07/21 01:17:28;;;;;;;17.85;11.00;;;18.30;99.90;;;;;;5089044;28;20052;-42
2022/07/21 01:19:54;;;;;;;16.50;10.63;;;18.30;99.90;;;;;;5089022;28;20036;-43
2022/07/21 01:22:20;;;;;;;21.17;12.38;;;18.20;99.90;;;;;;5088956;28;20085;-42
2022/07/21 01:24:46;;;;;;;22.20;11.45;;;18.10;99.90;;;;;;5088893;28;20261;-42
2022/07/21 01:27:12;;;;;;;23.67;12.57;;;18.10;99.90;;;;;;5088904;28;20479;-43
2022/07/21 01:29:37;;;;;;;22.42;13.30;;;18.00;99.90;;;;;;5088839;28;20595;-43
2022/07/21 01:32:04;;;;;;;30.48;13.95;;;18.00;99.90;;;;;;5088803;28;20036;-43
2022/07/21 01:34:30;;;;;;;29.65;14.65;;;18.00;99.90;;;;;;5089083;28;20043;-42
2022/07/21 01:36:55;;;;;;;56.42;17.92;;;18.00;99.90;;;;;;5088927;28;20048;-43
2022/07/21 01:42:05;;;;;;;34.58;15.75;;;18.00;99.90;;;;;;5089332;28;20096;-43
2022/07/21 01:44:31;;;;;;;26.20;15.35;;;17.90;99.90;;;;;;5089108;28;20040;-42
2022/07/21 01:46:57;;;;;;;42.20;17.52;;;18.00;99.90;;;;;;5086895;28;20076;-43
2022/07/21 01:49:22;;;;;;;23.20;14.35;;;18.20;99.90;;;;;;5088654;28;20044;-42
2022/07/21 01:51:49;;;;;;;31.70;16.08;;;17.90;99.90;;;;;;5088002;28;20130;-43
2022/07/21 01:54:15;;;;;;;61.13;20.42;;;17.90;99.90;;;;;;5088337;28;20040;-43
2022/07/21 01:56:40;;;;;;;34.80;16.83;;;17.90;99.90;;;;;;5088238;28;20114;-44
2022/07/21 01:59:06;;;;;;;41.42;16.05;;;17.90;99.90;;;;;;5088078;28;20402;-43
2022/07/21 02:01:33;;;;;;;48.85;19.60;;;17.90;99.90;;;;;;5087997;28;20036;-42
2022/07/21 02:04:02;;;;;;;81.25;24.30;;;17.90;99.90;;;;;;5087943;28;20040;-44
2022/07/21 02:06:28;;;;;;;55.33;19.92;;;17.90;99.90;;;;;;5086480;28;20055;-43
2022/07/21 02:08:54;;;;;;;30.35;16.85;;;17.90;99.90;;;;;;5087814;28;20070;-44
2022/07/21 02:11:20;;;;;;;50.67;19.83;;;17.90;99.90;;;;;;5087401;28;20040;-43
2022/07/21 02:13:47;;;;;;;62.05;20.42;;;17.70;99.90;;;;;;5087276;28;20047;-44
2022/07/21 02:16:13;;;;;;;38.13;17.35;;;17.80;99.90;;;;;;5087355;28;20040;-44
2022/07/21 02:18:40;;;;;;;45.00;20.17;;;17.80;99.90;;;;;;5087613;28;20052;-42
2022/07/21 02:21:05;;;;;;;45.40;19.15;;;17.80;99.90;;;;;;5087477;28;20048;-43
2022/07/21 02:23:31;;;;;;;46.60;19.70;;;18.10;99.90;;;;;;5087740;28;20040;-44
2022/07/21 02:25:57;;;;;;;36.17;19.65;;;17.80;99.90;;;;;;5087695;28;20048;-43
2022/07/21 02:28:24;;;;;;;36.97;17.77;;;17.70;99.90;;;;;;5087768;28;20518;-45
2022/07/21 02:30:50;;;;;;;53.75;22.67;;;17.70;99.90;;;;;;5087497;28;20440;-43
2022/07/21 02:33:16;;;;;;;31.00;16.83;;;17.70;99.90;;;;;;5087684;28;20051;-42
2022/07/21 02:35:42;;;;;;;42.22;20.23;;;17.70;99.90;;;;;;5087647;28;20036;-44
2022/07/21 02:38:08;;;;;;;59.80;21.67;;;17.70;99.90;;;;;;5087317;28;20083;-43
2022/07/21 02:40:34;;;;;;;38.25;19.75;;;17.80;99.90;;;;;;5086018;28;20081;-43
2022/07/21 02:43:00;;;;;;;27.45;17.75;;;17.70;99.90;;;;;;5087099;28;20043;-44
2022/07/21 02:45:26;;;;;;;27.88;17.35;;;17.80;99.90;;;;;;5087440;28;20054;-44
2022/07/21 02:47:58;;;;;;;30.25;18.05;;;17.80;99.90;;;;;;5086792;28;20087;-43
2022/07/21 02:50:27;;;;;;;28.15;16.70;;;17.80;99.90;;;;;;5087344;28;20040;-43
2022/07/21 02:53:00;;;;;;;27.63;17.10;;;17.80;99.90;;;;;;5086769;28;20809;-43
2022/07/21 02:55:27;;;;;;;39.75;20.52;;;17.80;99.90;;;;;;5087346;28;20131;-44
2022/07/21 02:58:13;;;;;;;38.40;19.95;;;17.70;99.90;;;;;;5086663;28;20048;-43
2022/07/21 03:00:54;;;;;;;24.48;18.13;;;17.70;99.90;;;;;;5087356;28;20116;-43
2022/07/21 03:03:22;;;;;;;33.00;18.55;;;17.70;99.90;;;;;;5086758;28;20047;-44
2022/07/21 03:05:48;;;;;;;41.92;20.33;;;17.70;99.90;;;;;;5086512;28;20079;-44
2022/07/21 03:08:15;;;;;;;60.33;22.98;;;17.60;99.90;;;;;;5086450;28;20510;-43
2022/07/21 03:10:41;;;;;;;36.97;19.50;;;17.60;99.90;;;;;;5086180;28;20063;-43
2022/07/21 03:13:07;;;;;;;31.33;17.92;;;17.60;99.90;;;;;;5086785;28;20073;-45
2022/07/21 03:15:33;;;;;;;40.33;20.40;;;17.60;99.90;;;;;;5086758;28;20434;-45
2022/07/21 03:18:00;;;;;;;53.97;23.25;;;17.60;99.90;;;;;;5085994;28;20052;-43
2022/07/21 03:20:29;;;;;;;43.55;19.92;;;17.60;99.90;;;;;;5086744;28;20163;-45
2022/07/21 03:22:55;;;;;;;53.25;23.73;;;17.60;99.90;;;;;;5086426;28;20485;-43
2022/07/21 03:25:20;;;;;;;67.60;24.08;;;17.60;99.90;;;;;;5086984;28;20046;-44
2022/07/21 03:27:47;;;;;;;38.08;21.00;;;17.60;99.90;;;;;;5086559;28;20482;-43
2022/07/21 03:30:14;;;;;;;33.97;19.88;;;17.50;99.90;;;;;;5086840;28;20040;-43
2022/07/21 03:32:40;;;;;;;31.45;19.42;;;17.60;99.90;;;;;;5087123;28;20115;-44
2022/07/21 03:35:10;;;;;;;35.92;20.15;;;17.60;99.90;;;;;;5086355;28;20039;-45
2022/07/21 03:37:51;;;;;;;30.05;18.50;;;17.70;99.90;;;;;;5086429;28;20051;-43
2022/07/21 03:40:22;;;;;;;42.85;22.17;;;17.70;99.90;;;;;;5086781;28;20414;-44
2022/07/21 03:42:52;;;;;;;26.58;17.73;;;17.60;99.90;;;;;;5086811;28;20437;-43
2022/07/21 03:45:18;;;;;;;46.17;22.52;;;17.70;99.90;;;;;;5086367;28;20040;-44
2022/07/21 03:47:43;;;;;;;78.97;25.75;;;17.70;99.90;;;;;;5086247;28;20462;-44
2022/07/21 03:50:11;;;;;;;54.35;23.98;;;17.60;99.90;;;;;;5084591;28;20402;-43
2022/07/21 03:52:37;;;;;;;34.38;19.85;;;17.60;99.90;;;;;;5086289;28;20451;-43
2022/07/21 03:55:10;;;;;;;49.03;23.60;;;17.60;99.90;;;;;;5086107;28;20047;-43
2022/07/21 03:57:40;;;;;;;34.38;19.25;;;17.60;99.90;;;;;;5086682;28;20039;-44
2022/07/21 04:00:11;;;;;;;36.55;20.42;;;17.60;99.90;;;;;;5086569;28;20094;-43
2022/07/21 04:02:37;;;;;;;61.40;24.58;;;17.60;99.90;;;;;;5086480;28;20412;-43
2022/07/21 04:05:04;;;;;;;29.10;19.00;;;17.60;99.90;;;;;;5086454;28;20040;-43
2022/07/21 04:07:29;;;;;;;42.33;22.20;;;17.70;99.90;;;;;;5086348;28;20040;-43
2022/07/21 04:09:55;;;;;;;32.00;20.10;;;17.70;99.90;;;;;;5086370;28;20082;-43
2022/07/21 04:12:28;;;;;;;29.23;19.77;;;17.70;99.90;;;;;;5090526;28;20101;-44
2022/07/21 04:14:55;;;;;;;51.78;23.25;;;17.70;99.90;;;;;;5090406;28;20074;-44
2022/07/21 04:17:21;;;;;;;30.40;18.92;;;17.70;99.90;;;;;;5090148;28;20569;-44
2022/07/21 04:19:47;;;;;;;29.23;19.20;;;17.70;99.90;;;;;;5090259;28;20444;-43
2022/07/21 04:22:13;;;;;;;49.28;23.50;;;17.70;99.90;;;;;;5090505;28;20076;-43
2022/07/21 04:24:38;;;;;;;30.58;18.85;;;17.80;99.90;;;;;;5090286;28;20044;-43
2022/07/21 04:27:04;;;;;;;49.60;23.50;;;17.80;99.90;;;;;;5090170;28;20109;-44
2022/07/21 04:29:30;;;;;;;34.95;20.55;;;18.10;99.90;;;;;;5090365;28;20093;-46
2022/07/21 04:31:55;;;;;;;33.10;21.20;;;17.90;99.90;;;;;;5090222;28;20036;-44
2022/07/21 04:34:21;;;;;;;39.97;20.58;;;17.90;99.90;;;;;;5089973;28;20044;-45
2022/07/21 04:36:47;;;;;;;32.35;20.35;;;18.00;99.90;;;;;;5089904;28;20047;-44
2022/07/21 04:39:12;;;;;;;27.95;18.38;;;18.00;99.90;;;;;;5089664;28;20072;-44
2022/07/21 04:41:38;;;;;;;37.38;20.25;;;18.00;99.90;;;;;;5090150;28;20408;-45
2022/07/21 04:44:04;;;;;;;69.63;26.17;;;18.00;99.90;;;;;;5089728;28;20043;-43
2022/07/21 04:46:29;;;;;;;53.58;23.55;;;18.10;99.90;;;;;;5089929;28;20119;-45
2022/07/21 04:48:55;;;;;;;41.35;21.63;;;18.10;99.90;;;;;;5089939;28;20132;-44
2022/07/21 04:51:21;;;;;;;73.22;24.95;;;18.10;99.90;;;;;;5089457;28;20080;-43
2022/07/21 04:53:46;;;;;;;92.30;28.20;;;18.20;99.90;;;;;;5089463;28;20047;-44
2022/07/21 04:56:12;;;;;;;79.35;27.58;;;18.20;99.90;;;;;;5089646;28;20044;-43
2022/07/21 04:58:38;;;;;;;82.15;29.55;;;18.30;99.90;;;;;;5089589;28;20040;-43
2022/07/21 05:01:03;;;;;;;57.47;28.45;;;18.30;99.90;;;;;;5089605;28;20036;-45
2022/07/21 05:03:29;;;;;;;55.50;27.60;;;18.30;99.90;;;;;;5089603;28;20044;-43
2022/07/21 05:05:54;;;;;;;68.55;29.88;;;18.40;99.90;;;;;;5089582;28;20048;-44
2022/07/21 05:08:20;;;;;;;69.00;31.48;;;18.40;99.90;;;;;;5089395;28;20488;-44
2022/07/21 05:10:46;;;;;;;43.60;29.17;;;18.40;99.90;;;;;;5088742;28;20043;-44
2022/07/21 05:13:11;;;;;;;82.30;34.17;;;18.40;99.90;;;;;;5089603;28;20048;-44
2022/07/21 05:15:37;;;;;;;96.63;36.63;;;18.50;99.90;;;;;;5089329;28;20055;-44
2022/07/21 05:18:03;;;;;;;68.60;33.65;;;18.50;99.90;;;;;;5088963;28;20060;-43
2022/07/21 05:20:29;;;;;;;97.22;38.45;;;18.50;99.90;;;;;;5088844;28;20047;-44
2022/07/21 05:22:54;;;;;;;89.25;38.92;;;18.60;99.90;;;;;;5088846;28;20043;-46
2022/07/21 05:25:20;;;;;;;64.93;37.25;;;18.60;99.90;;;;;;5088560;28;20059;-44
2022/07/21 05:27:46;;;;;;;52.70;33.63;;;18.50;99.90;;;;;;5088861;28;20040;-44
2022/07/21 05:30:12;;;;;;;57.95;35.03;;;18.60;99.90;;;;;;5088944;28;20044;-43
2022/07/21 05:32:37;;;;;;;55.10;33.08;;;18.70;99.90;;;;;;5088686;28;20035;-45
2022/07/21 05:35:10;;;;;;;40.20;26.92;;;18.70;99.90;;;;;;5088679;28;20058;-44
2022/07/21 05:37:37;;;;;;;99.80;36.38;;;18.80;99.90;;;;;;5088921;28;20090;-43
2022/07/21 05:40:03;;;;;;;51.45;32.65;;;18.80;99.90;;;;;;5088724;28;20375;-43
2022/07/21 05:42:29;;;;;;;100.07;38.45;;;18.90;99.90;;;;;;5088638;28;20059;-43
2022/07/21 05:44:56;;;;;;;91.03;37.88;;;19.10;99.90;;;;;;5088512;28;20040;-43
2022/07/21 05:47:21;;;;;;;40.70;30.08;;;19.20;99.90;;;;;;5088262;28;20040;-43
2022/07/21 05:49:47;;;;;;;85.63;36.35;;;19.30;99.90;;;;;;5087409;28;20036;-44
2022/07/21 05:52:13;;;;;;;34.35;28.40;;;19.50;99.90;;;;;;5087974;28;20044;-43
2022/07/21 05:54:38;;;;;;;30.55;27.15;;;19.60;99.90;;;;;;5088028;28;20051;-44
2022/07/21 05:57:04;;;;;;;46.60;31.02;;;19.60;99.90;;;;;;5088012;28;20059;-44
2022/07/21 05:59:30;;;;;;;36.05;30.25;;;19.70;99.90;;;;;;5087805;28;20040;-45
2022/07/21 06:01:55;;;;;;;84.60;37.38;;;19.80;99.90;;;;;;5088040;28;20043;-44
2022/07/21 06:04:21;;;;;;;83.97;36.38;;;20.00;99.90;;;;;;5087834;28;20058;-44
2022/07/21 06:06:47;;;;;;;34.17;29.40;;;20.10;99.90;;;;;;5087863;28;20505;-43
2022/07/21 06:09:12;;;;;;;30.65;26.02;;;20.20;99.90;;;;;;5087610;28;20277;-43
2022/07/21 06:11:38;;;;;;;29.95;26.58;;;20.10;99.90;;;;;;5087489;28;20039;-44
2022/07/21 06:14:04;;;;;;;44.92;30.90;;;20.10;99.90;;;;;;5087545;28;20040;-44
2022/07/21 06:16:31;;;;;;;31.42;28.05;;;20.00;99.90;;;;;;5087121;28;20048;-44
2022/07/21 06:18:57;;;;;;;32.97;29.55;;;20.00;99.90;;;;;;5086849;28;20047;-45
2022/07/21 06:21:23;;;;;;;24.88;22.00;;;20.00;99.90;;;;;;5087499;28;20036;-43
2022/07/21 06:23:49;;;;;;;29.63;26.52;;;20.00;99.90;;;;;;5088048;28;20044;-43
2022/07/21 06:26:14;;;;;;;29.92;26.77;;;20.00;99.90;;;;;;5088231;28;20422;-44
2022/07/21 06:28:41;;;;;;;38.03;27.90;;;19.90;99.90;;;;;;5087990;28;20047;-44
2022/07/21 06:31:07;;;;;;;29.77;26.02;;;19.80;99.90;;;;;;5087955;28;20044;-44
2022/07/21 06:33:32;;;;;;;33.78;26.17;;;19.80;99.90;;;;;;5087079;28;20036;-43
2022/07/21 06:35:58;;;;;;;35.08;28.35;;;19.80;99.90;;;;;;5087905;28;20052;-44
2022/07/21 06:38:24;;;;;;;35.95;29.45;;;19.70;99.90;;;;;;5087350;28;20040;-44
2022/07/21 06:40:49;;;;;;;35.47;29.60;;;19.70;99.90;;;;;;5087442;28;20036;-43
2022/07/21 06:43:15;;;;;;;30.92;27.02;;;19.60;99.90;;;;;;5087645;28;20546;-43
2022/07/21 06:45:41;;;;;;;30.85;27.60;;;19.60;99.90;;;;;;5087901;28;20651;-43
2022/07/21 06:48:08;;;;;;;29.83;26.73;;;19.50;99.90;;;;;;5087172;28;20048;-43
2022/07/21 06:50:34;;;;;;;25.35;22.85;;;19.50;99.90;;;;;;5087484;28;20394;-44
2022/07/21 06:53:01;;;;;;;27.42;24.83;;;19.50;99.90;;;;;;5087676;28;20477;-43
2022/07/21 06:55:27;;;;;;;25.67;23.08;;;19.40;99.90;;;;;;5086751;28;20631;-42
2022/07/21 06:57:53;;;;;;;26.75;23.92;;;19.30;99.90;;;;;;5087166;28;20201;-43
2022/07/21 07:00:19;;;;;;;26.27;23.55;;;19.30;99.90;;;;;;5087286;28;20040;-43
2022/07/21 07:02:45;;;;;;;27.73;24.88;;;19.20;99.90;;;;;;5087006;28;20040;-43
2022/07/21 07:05:11;;;;;;;30.63;25.50;;;19.20;99.90;;;;;;5086771;28;20047;-42
2022/07/21 07:07:36;;;;;;;29.60;26.48;;;19.20;99.90;;;;;;5087020;28;20118;-45
2022/07/21 07:10:03;;;;;;;30.00;25.80;;;19.20;99.90;;;;;;5087689;28;20043;-42
2022/07/21 07:12:29;;;;;;;28.85;25.25;;;19.20;99.90;;;;;;5087151;28;20502;-43
2022/07/21 07:14:54;;;;;;;27.27;24.38;;;19.30;99.90;;;;;;5086746;28;20069;-43
2022/07/21 07:17:20;;;;;;;22.52;20.08;;;19.40;99.90;;;;;;5086590;28;20588;-41
2022/07/21 07:19:49;;;;;;;24.67;22.08;;;19.40;99.90;;;;;;5086103;28;20401;-43
2022/07/21 07:22:15;;;;;;;29.17;24.00;;;19.50;99.90;;;;;;5086005;28;20044;-42
2022/07/21 07:24:41;;;;;;;24.13;20.90;;;19.70;99.90;;;;;;5086809;28;20039;-43
2022/07/21 07:27:07;;;;;;;24.33;21.88;;;19.80;99.90;;;;;;5086695;28;20040;-42
2022/07/21 07:29:32;;;;;;;24.67;22.15;;;20.00;99.90;;;;;;5087104;28;20040;-43
2022/07/21 07:31:59;;;;;;;21.20;19.00;;;20.20;99.90;;;;;;5087408;28;20055;-41
2022/07/21 07:34:24;;;;;;;19.05;17.20;;;20.50;99.90;;;;;;5086435;28;20043;-42
2022/07/21 07:36:50;;;;;;;22.70;20.58;;;20.50;99.90;;;;;;5086294;28;20057;-42
2022/07/21 07:39:16;;;;;;;23.35;20.08;;;20.60;99.90;;;;;;5086415;28;20466;-42
2022/07/21 07:41:43;;;;;;;20.55;18.50;;;20.60;99.90;;;;;;5085119;28;20051;-42
2022/07/21 07:44:09;;;;;;;21.20;18.83;;;20.50;99.90;;;;;;5086371;28;20501;-42
2022/07/21 07:46:35;;;;;;;22.35;20.13;;;20.60;99.90;;;;;;5086638;28;20047;-48
2022/07/21 07:49:01;;;;;;;24.60;22.20;;;20.80;99.90;;;;;;5086565;28;20040;-42
2022/07/21 07:51:26;;;;;;;25.58;22.90;;;21.00;99.90;;;;;;5085784;28;20123;-42
2022/07/21 07:53:52;;;;;;;26.02;23.65;;;21.00;99.90;;;;;;5086394;28;20083;-42
2022/07/21 07:56:18;;;;;;;29.60;26.40;;;21.10;99.90;;;;;;5085942;28;20048;-43
2022/07/21 07:58:43;;;;;;;28.90;25.90;;;21.10;99.90;;;;;;5086388;28;20069;-43
2022/07/21 08:01:09;;;;;;;26.85;24.30;;;21.20;99.90;;;;;;5086084;28;20040;-42
2022/07/21 08:03:35;;;;;;;27.90;25.08;;;21.20;99.90;;;;;;5085780;28;20050;-44
2022/07/21 08:06:03;;;;;;;28.48;25.58;;;21.40;99.90;;;;;;5086122;28;20080;-43
2022/07/21 08:08:30;;;;;;;28.48;25.67;;;21.50;99.90;;;;;;5085783;28;20052;-43
2022/07/21 08:10:55;;;;;;;28.38;25.73;;;21.60;99.90;;;;;;5085771;28;20541;-44
2022/07/21 08:13:21;;;;;;;27.00;24.25;;;23.60;99.90;;;;;;5086092;28;20040;-44
2022/07/21 08:15:48;;;;;;;26.95;24.35;;;24.20;99.90;;;;;;5086137;28;20105;-43
2022/07/21 08:18:14;;;;;;;25.10;22.52;;;25.60;99.90;;;;;;5085893;28;20052;-43
2022/07/21 08:20:40;;;;;;;23.33;21.23;;;26.40;99.90;;;;;;5085693;28;20044;-43
2022/07/21 08:23:06;;;;;;;22.85;20.80;;;26.40;99.90;;;;;;5085984;28;20032;-43
2022/07/21 08:25:33;;;;;;;20.60;18.75;;;26.60;99.90;;;;;;5085970;28;20078;-43
2022/07/21 08:27:59;;;;;;;19.55;17.65;;;27.50;99.90;;;;;;5085753;28;20048;-45
2022/07/21 08:30:25;;;;;;;20.25;18.35;;;28.60;99.90;;;;;;5085520;28;20172;-43
2022/07/21 08:32:51;;;;;;;19.98;18.08;;;30.20;99.00;;;;;;5085851;28;20082;-43
2022/07/21 08:35:17;;;;;;;17.38;15.77;;;31.20;95.80;;;;;;5085726;28;21951;-43
2022/07/21 08:37:57;;;;;;;16.95;15.35;;;31.20;92.80;;;;;;5085539;28;20076;-43
2022/07/21 08:40:24;;;;;;;16.48;15.05;;;31.60;90.00;;;;;;5085889;28;20051;-44
2022/07/21 08:42:52;;;;;;;15.07;13.68;;;32.00;88.10;;;;;;5085907;28;20051;-43
2022/07/21 08:45:18;;;;;;;15.77;14.23;;;32.80;85.60;;;;;;5085854;28;20044;-43
2022/07/21 08:47:44;;;;;;;13.88;12.65;;;34.00;82.40;;;;;;5085704;28;20486;-44
2022/07/21 08:50:10;;;;;;;13.60;12.50;;;35.20;77.70;;;;;;5086335;28;20425;-43
2022/07/21 08:52:36;;;;;;;13.00;11.73;;;36.20;73.50;;;;;;5085764;28;20093;-42
2022/07/21 08:55:03;;;;;;;12.30;11.15;;;36.90;71.00;;;;;;5085624;28;20401;-44
2022/07/21 08:57:28;;;;;;;13.70;12.40;;;37.50;68.80;;;;;;5088631;28;20047;-43
2022/07/21 08:59:54;;;;;;;11.77;10.57;;;38.10;67.30;;;;;;5089662;28;20040;-43
2022/07/21 09:02:33;;;;;;;12.38;11.25;;;38.10;66.70;;;;;;5089257;28;20525;-42
2022/07/21 09:04:59;;;;;;;11.65;10.63;;;37.50;64.80;;;;;;5089376;28;20044;-45
2022/07/21 09:07:26;;;;;;;13.23;12.07;;;36.90;68.00;;;;;;5089415;28;20535;-43
2022/07/21 09:10:02;;;;;;;14.40;13.15;;;36.70;69.70;;;;;;5088869;28;20048;-43
2022/07/21 09:12:29;;;;;;;14.50;13.00;;;36.80;67.80;;;;;;5088796;28;20036;-42
2022/07/21 09:15:18;;;;;;;14.57;13.27;;;36.60;67.70;;;;;;5088868;28;20043;-43
2022/07/21 09:17:44;;;;;;;13.80;12.63;;;35.80;65.40;;;;;;5080682;28;20498;-43
2022/07/21 09:20:24;;;;;;;12.27;11.20;;;35.60;65.90;;;;;;5088989;28;20044;-43
2022/07/21 09:23:02;;;;;;;11.35;10.32;;;36.50;63.40;;;;;;5088568;28;20035;-43
2022/07/21 09:25:42;;;;;;;12.48;11.27;;;36.90;60.90;;;;;;5088677;28;20123;-43
2022/07/21 09:28:13;;;;;;;13.25;12.05;;;37.80;62.20;;;;;;5089034;28;20048;-43
2022/07/21 09:30:48;;;;;;;12.93;11.73;;;38.60;58.60;;;;;;5088368;28;20135;-43
2022/07/21 09:33:37;;;;;;;14.35;13.15;;;38.10;59.70;;;;;;5088869;28;20397;-43
2022/07/21 09:36:09;;;;;;;15.88;14.45;;;36.90;59.10;;;;;;5070037;28;20051;-44
2022/07/21 09:38:44;;;;;;;15.95;14.55;;;35.30;60.50;;;;;;5088099;28;20047;-42
2022/07/21 09:41:16;;;;;;;16.55;15.15;;;33.50;62.40;;;;;;5088752;28;20050;-43
2022/07/21 09:43:51;;;;;;;16.85;15.40;;;32.00;65.20;;;;;;5088610;28;20063;-44
2022/07/21 09:46:24;;;;;;;17.50;15.95;;;30.70;68.40;;;;;;5088840;28;20047;-44
2022/07/21 09:48:52;;;;;;;18.05;16.35;;;29.60;71.90;;;;;;5088882;28;20076;-42
2022/07/21 09:51:33;;;;;;;17.33;15.80;;;28.60;73.70;;;;;;5088476;28;20040;-43
2022/07/21 09:54:06;;;;;;;18.30;16.70;;;27.90;77.50;;;;;;5088727;28;20131;-43
2022/07/21 09:56:34;;;;;;;16.38;14.88;;;27.30;79.50;;;;;;5088129;28;20492;-44
2022/07/21 09:59:01;;;;;;;17.50;15.82;;;26.90;79.40;;;;;;5088658;28;20500;-42
2022/07/21 10:01:29;;;;;;;17.55;15.90;;;26.60;79.00;;;;;;5088709;28;20047;-43
2022/07/21 10:03:56;;;;;;;18.00;16.33;;;26.30;80.70;;;;;;5088868;28;20048;-43
2022/07/21 10:06:33;;;;;;;17.15;15.43;;;26.20;81.80;;;;;;5088283;28;20051;-43
2022/07/21 10:09:01;;;;;;;16.52;14.93;;;26.20;85.00;;;;;;5087496;28;20055;-43
2022/07/21 10:11:27;;;;;;;18.05;16.35;;;26.20;82.80;;;;;;5088090;28;20035;-42
2022/07/21 10:13:54;;;;;;;18.35;16.58;;;26.20;83.30;;;;;;5088121;28;20051;-43
2022/07/21 10:16:19;;;;;;;18.13;16.25;;;26.20;83.60;;;;;;5087651;28;20051;-42
2022/07/21 10:19:02;;;;;;;17.75;16.05;;;26.30;84.90;;;;;;5088030;28;20060;-42
2022/07/21 10:21:41;;;;;;;17.70;16.17;;;26.60;85.70;;;;;;5088027;28;20048;-42
2022/07/21 10:24:10;;;;;;;17.05;14.38;;;27.20;87.70;;;;;;5088645;28;20047;-42
2022/07/21 10:26:36;;;;;;;16.52;14.85;;;28.00;84.00;;;;;;5087881;28;20097;-42
2022/07/21 10:29:02;;;;;;;15.98;14.48;;;28.60;82.60;;;;;;5087907;28;20362;-42
2022/07/21 10:31:28;;;;;;;16.50;14.90;;;28.80;81.80;;;;;;5087478;28;20072;-42
2022/07/21 10:33:57;;;;;;;16.35;14.75;;;28.80;78.50;;;;;;5087685;28;20339;-43
2022/07/21 10:36:28;;;;;;;17.55;15.95;;;28.70;77.60;;;;;;5087907;28;20071;-42
2022/07/21 10:39:06;;;;;;;17.92;16.30;;;28.40;80.70;;;;;;5087392;28;20044;-44
2022/07/21 10:41:43;;;;;;;19.08;17.15;;;28.10;80.00;;;;;;5087796;28;20047;-42
2022/07/21 10:44:27;;;;;;;16.55;14.95;;;27.90;82.20;;;;;;5087585;28;20035;-42
2022/07/21 10:47:20;;;;;;;16.50;14.95;;;27.60;80.20;;;;;;5087209;28;20047;-43
2022/07/21 10:49:50;;;;;;;19.23;17.42;;;27.20;79.80;;;;;;5086938;28;20039;-42
2022/07/21 10:52:34;;;;;;;21.90;19.65;;;26.60;83.30;;;;;;5087134;28;20048;-42
2022/07/21 10:55:26;;;;;;;22.15;19.80;;;25.90;84.90;;;;;;5087353;28;20476;-42
2022/07/21 10:58:27;;;;;;;25.10;22.40;;;25.30;88.80;;;;;;5087095;28;20056;-42
2022/07/21 11:01:04;;;;;;;25.73;22.57;;;24.80;92.90;;;;;;5087195;28;20046;-42
2022/07/21 11:03:33;;;;;;;27.00;23.98;;;24.20;93.90;;;;;;5086973;28;20263;-42
2022/07/21 11:06:22;;;;;;;29.25;26.13;;;23.70;96.80;;;;;;5086963;28;20048;-43
2022/07/21 11:08:52;;;;;;;28.30;25.20;;;23.20;99.90;;;;;;5086424;28;20501;-42
2022/07/21 11:11:22;;;;;;;30.40;27.20;;;22.60;99.90;;;;;;5086609;28;20448;-43
2022/07/21 11:14:04;;;;;;;30.48;26.60;;;22.20;99.90;;;;;;5086859;28;20048;-43
2022/07/21 11:17:03;;;;;;;36.05;25.75;;;21.90;99.90;;;;;;5086707;28;20060;-42
2022/07/21 11:19:34;;;;;;;34.75;28.88;;;21.70;99.90;;;;;;5085958;28;20055;-43
2022/07/21 11:22:10;;;;;;;37.47;28.35;;;21.60;99.90;;;;;;5086924;28;20204;-43
2022/07/21 11:24:36;;;;;;;31.42;27.25;;;21.50;99.90;;;;;;5086913;28;20040;-43
2022/07/21 11:27:06;;;;;;;36.10;28.85;;;21.50;99.90;;;;;;5086687;28;20154;-42
2022/07/21 11:29:33;;;;;;;33.95;30.25;;;21.50;99.90;;;;;;5086830;28;20108;-43
2022/07/21 11:32:01;;;;;;;34.45;30.73;;;21.50;99.90;;;;;;5086498;28;20219;-44
2022/07/21 11:34:42;;;;;;;34.40;29.75;;;21.50;99.90;;;;;;5086332;28;20048;-43
2022/07/21 11:37:09;;;;;;;43.43;33.10;;;21.60;99.90;;;;;;5086257;28;20486;-43
2022/07/21 11:39:35;;;;;;;36.63;30.70;;;21.80;99.90;;;;;;5086915;28;20036;-42
2022/07/21 11:42:12;;;;;;;33.78;30.13;;;22.20;99.90;;;;;;5086604;28;20044;-42
2022/07/21 11:44:39;;;;;;;34.28;28.52;;;22.60;99.90;;;;;;5086852;28;20036;-43
2022/07/21 11:47:09;;;;;;;37.88;33.05;;;22.70;99.90;;;;;;5086342;28;20101;-43
2022/07/21 11:49:35;;;;;;;31.38;28.15;;;22.90;99.90;;;;;;5086425;28;20040;-43
2022/07/21 11:52:05;;;;;;;34.85;31.15;;;23.10;99.90;;;;;;5086635;28;20494;-42
2022/07/21 11:54:46;;;;;;;33.08;29.67;;;23.40;99.90;;;;;;5086340;28;20040;-44
2022/07/21 11:57:12;;;;;;;33.38;29.98;;;23.80;99.90;;;;;;5086355;28;20091;-42
2022/07/21 11:59:40;;;;;;;32.25;28.58;;;24.10;99.90;;;;;;5086678;28;20111;-42
2022/07/21 12:02:13;;;;;;;30.95;27.80;;;24.40;99.90;;;;;;5086489;28;20047;-42
2022/07/21 12:04:41;;;;;;;29.85;26.73;;;24.80;99.90;;;;;;5086382;28;20562;-42
2022/07/21 12:07:20;;;;;;;32.80;28.60;;;25.10;99.90;;;;;;5086219;28;20150;-42
2022/07/21 12:09:52;;;;;;;30.50;27.38;;;25.30;99.90;;;;;;5085563;28;20044;-42
2022/07/21 12:12:37;;;;;;;31.00;27.92;;;25.40;99.90;;;;;;5086389;28;20055;-42
2022/07/21 12:15:19;;;;;;;29.58;26.45;;;25.70;99.90;;;;;;5086414;28;20432;-42
2022/07/21 12:17:53;;;;;;;29.58;26.58;;;25.80;99.90;;;;;;5086434;28;20094;-42
2022/07/21 12:20:41;;;;;;;28.77;26.00;;;25.80;99.90;;;;;;5086512;28;20071;-42
2022/07/21 12:23:19;;;;;;;23.83;21.33;;;25.80;99.90;;;;;;5085665;28;20044;-43
2022/07/21 12:25:45;;;;;;;17.00;15.32;;;25.60;99.90;;;;;;5085450;28;20056;-42
2022/07/21 12:28:11;;;;;;;18.13;16.17;;;25.30;99.90;;;;;;5086385;28;20059;-42
2022/07/21 12:30:45;;;;;;;17.55;15.82;;;24.90;99.90;;;;;;5086072;28;20093;-43
2022/07/21 12:33:14;;;;;;;18.17;16.27;;;24.60;99.90;;;;;;5090175;28;20128;-43
2022/07/21 12:35:46;;;;;;;18.42;16.63;;;24.40;99.90;;;;;;5089567;28;20658;-42
2022/07/21 12:38:14;;;;;;;18.02;15.80;;;24.10;99.90;;;;;;5089736;28;20035;-42